createdAt,value
2018-02-14T00:00:52.453Z,66.69
2018-02-14T00:01:52.465Z,66.53
2018-02-14T00:02:52.487Z,66.74
2018-02-14T00:03:52.490Z,66.81
2018-02-14T00:04:52.474Z,67.05
2018-02-14T00:05:52.453Z,67.14
2018-02-14T00:06:52.461Z,67.08
2018-02-14T00:07:52.490Z,67.04
2018-02-14T00:08:52.523Z,67.14
2018-02-14T00:09:52.477Z,67.33
2018-02-14T00:10:52.479Z,67.12
2018-02-14T00:11:52.480Z,67.17
2018-02-14T00:12:52.475Z,67.15
2018-02-14T00:13:52.504Z,67.29
2018-02-14T00:14:52.490Z,67.42
2018-02-14T00:15:52.485Z,67.52
2018-02-14T00:16:52.501Z,67.01
2018-02-14T00:17:52.508Z,67.11
2018-02-14T00:18:52.886Z,67.24
2018-02-14T00:19:52.488Z,67.1
2018-02-14T00:20:52.503Z,67.28
2018-02-14T00:21:52.502Z,67.28
2018-02-14T00:22:52.491Z,67.44
2018-02-14T00:23:52.524Z,67.57
2018-02-14T00:24:52.552Z,67.48
2018-02-14T00:25:52.514Z,67.58
2018-02-14T00:26:52.521Z,67.5
2018-02-14T00:27:52.520Z,67.17
2018-02-14T00:28:52.536Z,67.04
2018-02-14T00:29:52.512Z,67.08
2018-02-14T00:30:52.516Z,66.99
2018-02-14T00:31:52.525Z,67.17
2018-02-14T00:32:52.535Z,67.3
2018-02-14T00:33:52.556Z,67.57
2018-02-14T00:34:52.548Z,67.4
2018-02-14T00:35:52.531Z,67.29
2018-02-14T00:36:52.537Z,67.41
2018-02-14T00:37:52.542Z,67.2
2018-02-14T00:38:52.572Z,66.88
2018-02-14T00:39:52.553Z,67.17
2018-02-14T00:40:52.544Z,67.47
2018-02-14T00:41:52.567Z,67.49
2018-02-14T00:42:52.569Z,67.29
2018-02-14T00:43:52.545Z,67.33
2018-02-14T00:44:52.581Z,67.27
2018-02-14T00:45:52.546Z,67.47
2018-02-14T00:46:52.553Z,67.44
2018-02-14T00:47:52.558Z,67.54
2018-02-14T00:48:52.564Z,67.55
2018-02-14T00:49:52.545Z,67.38
2018-02-14T00:50:52.551Z,67.48
2018-02-14T00:51:52.563Z,67.64
2018-02-14T00:52:52.557Z,67.74
2018-02-14T00:53:52.605Z,67.8
2018-02-14T00:54:52.570Z,67.5
2018-02-14T00:55:52.567Z,67.64
2018-02-14T00:56:52.581Z,67.48
2018-02-14T00:57:52.577Z,67.43
2018-02-14T00:58:52.576Z,67.75
2018-02-14T00:59:52.584Z,67.62
2018-02-14T01:00:52.591Z,67.72
2018-02-14T01:01:52.596Z,68.29
2018-02-14T01:02:52.595Z,68.02
2018-02-14T01:03:52.615Z,67.73
2018-02-14T01:04:52.593Z,67.77
2018-02-14T01:05:52.604Z,68.08
2018-02-14T01:06:52.597Z,67.93
2018-02-14T01:07:52.595Z,67.95
2018-02-14T01:08:52.643Z,67.93
2018-02-14T01:09:52.612Z,67.83
2018-02-14T01:10:52.602Z,67.96
2018-02-14T01:11:52.609Z,68.15
2018-02-14T01:12:52.611Z,67.71
2018-02-14T01:13:52.629Z,67.94
2018-02-14T01:14:52.636Z,68.03
2018-02-14T01:15:52.619Z,67.92
2018-02-14T01:16:52.622Z,68.12
2018-02-14T01:17:52.734Z,68.36
2018-02-14T01:18:52.627Z,68.19
2018-02-14T01:19:52.638Z,67.99
2018-02-14T01:20:52.638Z,68.11
2018-02-14T01:21:52.652Z,68.31
2018-02-14T01:22:52.664Z,68.19
2018-02-14T01:23:52.681Z,68.39
2018-02-14T01:24:52.657Z,67.98
2018-02-14T01:25:52.645Z,68.17
2018-02-14T01:26:52.645Z,68.16
2018-02-14T01:27:52.634Z,68.26
2018-02-14T01:28:52.677Z,68.48
2018-02-14T01:29:52.644Z,68.15
2018-02-14T01:30:52.679Z,68.27
2018-02-14T01:31:52.648Z,68.25
2018-02-14T01:32:52.641Z,68.19
2018-02-14T01:33:52.642Z,68.56
2018-02-14T01:34:52.998Z,68.23
2018-02-14T01:35:52.662Z,68.58
2018-02-14T01:36:52.666Z,68.3
2018-02-14T01:37:52.668Z,68.64
2018-02-14T01:38:52.663Z,68.41
2018-02-14T01:39:52.689Z,68.42
2018-02-14T01:40:52.955Z,68.73
2018-02-14T01:41:52.676Z,68.5
2018-02-14T01:42:52.690Z,68.33
2018-02-14T01:43:52.692Z,68.11
2018-02-14T01:44:52.700Z,68.46
2018-02-14T01:45:52.714Z,68.16
2018-02-14T01:46:52.817Z,68.38
2018-02-14T01:47:52.697Z,68.34
2018-02-14T01:48:52.693Z,68.42
2018-02-14T01:49:52.708Z,68.42
2018-02-14T01:50:52.705Z,68.78
2018-02-14T01:51:52.728Z,68.28
2018-02-14T01:52:52.753Z,68.46
2018-02-14T01:53:52.714Z,68.69
2018-02-14T01:54:52.712Z,68.64
2018-02-14T01:55:52.713Z,68.56
2018-02-14T01:56:52.755Z,68.43
2018-02-14T01:57:52.732Z,68.58
2018-02-14T01:58:52.733Z,68.8
2018-02-14T01:59:52.721Z,68.74
2018-02-14T02:00:52.724Z,68.7
2018-02-14T02:01:52.732Z,68.72
2018-02-14T02:02:52.758Z,68.5
2018-02-14T02:03:52.772Z,68.68
2018-02-14T02:04:52.753Z,68.69
2018-02-14T02:05:52.745Z,68.52
2018-02-14T02:06:52.746Z,68.78
2018-02-14T02:07:52.750Z,68.75
2018-02-14T02:08:52.885Z,68.65
2018-02-14T02:09:52.767Z,68.99
2018-02-14T02:10:52.772Z,68.79
2018-02-14T02:11:52.772Z,68.83
2018-02-14T02:12:52.760Z,68.73
2018-02-14T02:13:52.793Z,68.31
2018-02-14T02:14:52.773Z,68.45
2018-02-14T02:15:52.782Z,68.4
2018-02-14T02:16:52.786Z,68.49
2018-02-14T02:17:52.794Z,68.67
2018-02-14T02:18:52.799Z,68.93
2018-02-14T02:19:52.929Z,68.86
2018-02-14T02:20:52.815Z,68.98
2018-02-14T02:21:52.795Z,68.93
2018-02-14T02:22:52.815Z,68.96
2018-02-14T02:23:52.807Z,68.82
2018-02-14T02:24:52.835Z,68.7
2018-02-14T02:25:52.823Z,68.62
2018-02-14T02:26:52.840Z,68.67
2018-02-14T02:27:52.834Z,68.66
2018-02-14T02:28:52.825Z,68.76
2018-02-14T02:29:52.828Z,68.77
2018-02-14T02:30:52.869Z,68.43
2018-02-14T02:31:52.835Z,68.66
2018-02-14T02:32:52.842Z,68.75
2018-02-14T02:33:52.854Z,68.55
2018-02-14T02:34:52.851Z,68.88
2018-02-14T02:35:53.028Z,68.59
2018-02-14T02:36:52.873Z,68.85
2018-02-14T02:37:52.857Z,68.98
2018-02-14T02:38:52.859Z,69
2018-02-14T02:39:52.870Z,68.69
2018-02-14T02:40:52.893Z,68.91
2018-02-14T02:41:52.857Z,68.84
2018-02-14T02:42:52.864Z,68.91
2018-02-14T02:43:52.877Z,69.09
2018-02-14T02:44:52.872Z,68.91
2018-02-14T02:45:52.908Z,68.96
2018-02-14T02:46:52.897Z,68.83
2018-02-14T02:47:52.873Z,68.78
2018-02-14T02:48:52.878Z,68.94
2018-02-14T02:49:52.885Z,69.1
2018-02-14T02:50:52.909Z,69.28
2018-02-14T02:51:52.916Z,69.03
2018-02-14T02:52:52.929Z,69.08
2018-02-14T02:53:52.908Z,68.97
2018-02-14T02:54:52.921Z,69.25
2018-02-14T02:55:52.909Z,69.35
2018-02-14T02:56:52.894Z,69.22
2018-02-14T02:57:52.917Z,69
2018-02-14T02:58:52.917Z,68.81
2018-02-14T02:59:52.908Z,69.21
2018-02-14T03:00:52.911Z,69.3
2018-02-14T03:01:53.214Z,69.22
2018-02-14T03:02:52.921Z,69.22
2018-02-14T03:03:52.917Z,69.26
2018-02-14T03:04:52.934Z,69.58
2018-02-14T03:05:52.936Z,69.46
2018-02-14T03:06:53.060Z,69.43
2018-02-14T03:07:52.935Z,69.17
2018-02-14T03:08:52.924Z,69.46
2018-02-14T03:09:52.948Z,69.56
2018-02-14T03:10:52.939Z,69.47
2018-02-14T03:11:52.948Z,69.37
2018-02-14T03:12:52.940Z,69.5
2018-02-14T03:13:52.959Z,69.12
2018-02-14T03:14:52.967Z,69.18
2018-02-14T03:15:52.951Z,69.01
2018-02-14T03:16:52.950Z,69.57
2018-02-14T03:17:52.956Z,69.51
2018-02-14T03:18:52.979Z,69.3
2018-02-14T03:19:52.998Z,69.51
2018-02-14T03:20:52.962Z,69.52
2018-02-14T03:21:52.976Z,69.53
2018-02-14T03:22:52.974Z,69.49
2018-02-14T03:23:52.973Z,69.68
2018-02-14T03:24:53.007Z,69.6
2018-02-14T03:25:53.008Z,69.41
2018-02-14T03:26:52.976Z,69.55
2018-02-14T03:27:52.989Z,69.65
2018-02-14T03:28:52.984Z,69.69
2018-02-14T03:29:53.007Z,69.43
2018-02-14T03:30:53.026Z,69.71
2018-02-14T03:31:52.982Z,70.02
2018-02-14T03:32:53.001Z,70.06
2018-02-14T03:33:53.000Z,69.86
2018-02-14T03:34:53.001Z,69.76
2018-02-14T03:35:53.030Z,69.99
2018-02-14T03:36:53.010Z,70.12
2018-02-14T03:37:53.019Z,70.41
2018-02-14T03:38:53.022Z,70.21
2018-02-14T03:39:53.015Z,70.23
2018-02-14T03:40:53.038Z,70.43
2018-02-14T03:41:53.045Z,70.26
2018-02-14T03:42:53.035Z,70.31
2018-02-14T03:43:53.039Z,70.32
2018-02-14T03:44:53.042Z,70.27
2018-02-14T03:45:53.068Z,70.08
2018-02-14T03:46:53.062Z,70.34
2018-02-14T03:47:53.088Z,70.08
2018-02-14T03:48:53.066Z,70.3
2018-02-14T03:49:53.068Z,70.14
2018-02-14T03:50:53.067Z,69.84
2018-02-14T03:51:53.065Z,69.86
2018-02-14T03:52:53.065Z,69.83
2018-02-14T03:53:53.077Z,69.76
2018-02-14T03:54:53.066Z,69.96
2018-02-14T03:55:53.078Z,69.85
2018-02-14T03:56:53.092Z,70.12
2018-02-14T03:57:53.078Z,69.92
2018-02-14T03:58:53.076Z,70.27
2018-02-14T03:59:53.074Z,70.21
2018-02-14T04:00:53.069Z,70.33
2018-02-14T04:01:53.118Z,70.37
2018-02-14T04:02:53.078Z,70.33
2018-02-14T04:03:53.091Z,70.47
2018-02-14T04:04:53.084Z,70.32
2018-02-14T04:05:53.116Z,70.33
2018-02-14T04:06:53.099Z,70.53
2018-02-14T04:07:53.119Z,70.3
2018-02-14T04:08:53.110Z,70.18
2018-02-14T04:09:53.118Z,70.07
2018-02-14T04:10:53.104Z,70.63
2018-02-14T04:11:53.476Z,70.6
2018-02-14T04:12:53.120Z,70.65
2018-02-14T04:13:53.159Z,70.44
2018-02-14T04:14:53.128Z,70.32
2018-02-14T04:15:53.127Z,70.33
2018-02-14T04:16:53.142Z,70.44
2018-02-14T04:17:53.152Z,70.49
2018-02-14T04:18:53.134Z,70.28
2018-02-14T04:19:53.140Z,70.19
2018-02-14T04:20:53.128Z,70.34
2018-02-14T04:21:53.174Z,70.25
2018-02-14T04:22:53.161Z,70.27
2018-02-14T04:23:53.148Z,70.2
2018-02-14T04:24:53.153Z,70.33
2018-02-14T04:25:53.147Z,70.44
2018-02-14T04:26:53.141Z,70.48
2018-02-14T04:27:53.148Z,70.43
2018-02-14T04:28:53.153Z,70.43
2018-02-14T04:29:53.164Z,70.5
2018-02-14T04:30:53.165Z,70.62
2018-02-14T04:31:53.172Z,70.87
2018-02-14T04:32:53.191Z,70.6
2018-02-14T04:33:53.170Z,70.74
2018-02-14T04:34:53.163Z,70.71
2018-02-14T04:35:53.168Z,70.86
2018-02-14T04:36:53.178Z,70.65
2018-02-14T04:37:53.238Z,70.75
2018-02-14T04:38:53.198Z,70.89
2018-02-14T04:39:53.176Z,70.76
2018-02-14T04:40:53.192Z,70.62
2018-02-14T04:41:53.187Z,70.52
2018-02-14T04:44:53.318Z,70.25
2018-02-14T04:45:53.189Z,70.47
2018-02-14T04:46:53.197Z,70.41
2018-02-14T04:47:53.201Z,70.4
2018-02-14T04:48:53.207Z,70.21
2018-02-14T04:49:53.257Z,70.4
2018-02-14T04:50:53.224Z,70.1
2018-02-14T04:51:53.221Z,70.37
2018-02-14T04:52:53.239Z,70.03
2018-02-14T04:53:53.224Z,70.13
2018-02-14T04:54:53.276Z,70.05
2018-02-14T04:55:53.234Z,70.15
2018-02-14T04:56:53.265Z,70
2018-02-14T04:57:53.274Z,69.89
2018-02-14T04:58:53.249Z,70.13
2018-02-14T04:59:53.263Z,69.96
2018-02-14T05:00:53.284Z,70.05
2018-02-14T05:01:53.272Z,70.24
2018-02-14T05:02:53.260Z,69.97
2018-02-14T05:03:53.264Z,69.92
2018-02-14T05:04:53.271Z,69.99
2018-02-14T05:05:53.295Z,69.81
2018-02-14T05:06:53.309Z,70.13
2018-02-14T05:07:53.390Z,70.02
2018-02-14T05:08:53.351Z,69.88
2018-02-14T05:10:06.386Z,69.8
2018-02-14T05:10:58.502Z,69.7
2018-02-14T05:11:58.305Z,69.71
2018-02-14T05:12:58.330Z,70
2018-02-14T05:14:03.308Z,69.62
2018-02-14T05:14:59.424Z,69.65
2018-02-14T05:16:03.350Z,69.6
2018-02-14T05:17:03.314Z,69.59
2018-02-14T05:18:08.780Z,69.71
2018-02-14T05:19:03.303Z,69.85
2018-02-14T05:19:53.334Z,69.74
2018-02-14T05:20:53.324Z,69.8
2018-02-14T05:21:53.349Z,69.79
2018-02-14T05:22:53.314Z,69.82
2018-02-14T05:23:53.326Z,69.89
2018-02-14T05:24:53.331Z,70.04
2018-02-14T05:25:53.340Z,69.69
2018-02-14T05:26:53.369Z,70.01
2018-02-14T05:27:53.340Z,70.11
2018-02-14T05:28:53.349Z,69.88
2018-02-14T05:29:53.353Z,69.95
2018-02-14T05:30:53.821Z,70
2018-02-14T05:31:53.372Z,69.83
2018-02-14T05:32:53.396Z,69.62
2018-02-14T05:33:53.368Z,70.07
2018-02-14T05:34:53.377Z,70.17
2018-02-14T05:35:53.384Z,70
2018-02-14T05:36:53.378Z,69.89
2018-02-14T05:37:53.394Z,69.66
2018-02-14T05:38:53.401Z,69.66
2018-02-14T05:39:53.387Z,69.65
2018-02-14T05:40:53.390Z,69.63
2018-02-14T05:41:53.395Z,69.8
2018-02-14T05:42:53.396Z,69.83
2018-02-14T05:43:53.391Z,69.73
2018-02-14T05:44:53.414Z,69.94
2018-02-14T05:45:53.409Z,70.16
2018-02-14T05:46:53.412Z,70.08
2018-02-14T05:47:53.430Z,69.83
2018-02-14T05:48:53.428Z,69.79
2018-02-14T05:49:53.419Z,69.81
2018-02-14T05:50:53.416Z,69.97
2018-02-14T05:51:53.407Z,69.77
2018-02-14T05:52:53.418Z,70.06
2018-02-14T05:53:53.419Z,69.82
2018-02-14T05:54:53.442Z,69.82
2018-02-14T05:55:53.413Z,69.8
2018-02-14T05:56:53.446Z,69.85
2018-02-14T05:57:53.441Z,69.84
2018-02-14T05:58:53.444Z,69.7
2018-02-14T05:59:53.454Z,69.58
2018-02-14T06:00:53.443Z,69.82
2018-02-14T06:01:53.467Z,70.17
2018-02-14T06:02:53.442Z,70.03
2018-02-14T06:03:53.451Z,70.16
2018-02-14T06:04:53.455Z,69.99
2018-02-14T06:05:53.585Z,70.22
2018-02-14T06:06:53.488Z,70.34
2018-02-14T06:07:53.454Z,70.23
2018-02-14T06:08:53.516Z,70.23
2018-02-14T06:09:53.464Z,70.16
2018-02-14T06:10:53.473Z,70.29
2018-02-14T06:11:53.469Z,70.32
2018-02-14T06:12:53.498Z,70.51
2018-02-14T06:13:53.510Z,70.42
2018-02-14T06:14:53.484Z,70.06
2018-02-14T06:15:53.484Z,70.03
2018-02-14T06:16:53.494Z,70.08
2018-02-14T06:17:53.483Z,70.25
2018-02-14T06:18:53.524Z,70.23
2018-02-14T06:19:53.515Z,70.24
2018-02-14T06:20:53.505Z,70.58
2018-02-14T06:21:53.615Z,70.64
2018-02-14T06:22:53.514Z,70.39
2018-02-14T06:23:53.541Z,70.34
2018-02-14T06:24:53.519Z,70.44
2018-02-14T06:25:53.525Z,70.42
2018-02-14T06:26:53.520Z,70.61
2018-02-14T06:27:53.591Z,70.23
2018-02-14T06:28:53.556Z,70.36
2018-02-14T06:29:53.548Z,70.34
2018-02-14T06:30:53.555Z,70.15
2018-02-14T06:31:53.533Z,70.23
2018-02-14T06:32:53.540Z,70.63
2018-02-14T06:33:53.567Z,70.55
2018-02-14T06:34:53.560Z,70.53
2018-02-14T06:35:53.548Z,70.69
2018-02-14T06:36:53.573Z,70.59
2018-02-14T06:37:53.548Z,70.59
2018-02-14T06:38:53.614Z,70.93
2018-02-14T06:39:53.556Z,71.06
2018-02-14T06:40:53.900Z,70.86
2018-02-14T06:41:53.557Z,70.71
2018-02-14T06:42:53.560Z,70.7
2018-02-14T06:43:53.573Z,70.79
2018-02-14T06:44:53.618Z,70.77
2018-02-14T06:45:53.599Z,70.62
2018-02-14T06:46:53.594Z,70.53
2018-02-14T06:47:53.589Z,70.57
2018-02-14T06:48:53.576Z,70.66
2018-02-14T06:49:53.583Z,70.86
2018-02-14T06:50:53.611Z,71.02
2018-02-14T06:51:53.618Z,70.96
2018-02-14T06:52:53.603Z,71.23
2018-02-14T06:53:53.610Z,71.34
2018-02-14T06:54:53.605Z,71.43
2018-02-14T06:55:53.623Z,71.58
2018-02-14T06:56:53.633Z,71.56
2018-02-14T06:57:53.633Z,71.52
2018-02-14T06:58:53.824Z,71.49
2018-02-14T06:59:53.629Z,71.54
2018-02-14T07:00:53.659Z,71.82
2018-02-14T07:01:53.687Z,71.4
2018-02-14T07:02:53.654Z,71.58
2018-02-14T07:03:53.646Z,71.79
2018-02-14T07:04:53.643Z,71.83
2018-02-14T07:05:53.954Z,71.92
2018-02-14T07:06:53.648Z,71.75
2018-02-14T07:07:53.735Z,71.83
2018-02-14T07:08:53.668Z,72.03
2018-02-14T07:09:53.668Z,71.77
2018-02-14T07:10:53.723Z,71.83
2018-02-14T07:11:53.675Z,72.07
2018-02-14T07:12:53.683Z,71.8
2018-02-14T07:13:53.704Z,71.96
2018-02-14T07:14:53.681Z,72.06
2018-02-14T07:15:53.708Z,72.19
2018-02-14T07:16:53.712Z,72.09
2018-02-14T07:17:53.688Z,71.88
2018-02-14T07:18:53.682Z,72.15
2018-02-14T07:19:53.690Z,72.12
2018-02-14T07:20:53.714Z,72.08
2018-02-14T07:21:53.725Z,71.85
2018-02-14T07:22:54.082Z,71.88
2018-02-14T07:23:53.713Z,71.95
2018-02-14T07:24:53.714Z,71.77
2018-02-14T07:25:53.727Z,71.8
2018-02-14T07:26:53.727Z,71.94
2018-02-14T07:27:53.756Z,72.06
2018-02-14T07:28:53.727Z,72.03
2018-02-14T07:29:53.724Z,71.85
2018-02-14T07:30:53.731Z,71.95
2018-02-14T07:31:53.762Z,71.62
2018-02-14T07:32:53.764Z,71.65
2018-02-14T07:33:53.907Z,71.6
2018-02-14T07:34:53.764Z,71.43
2018-02-14T07:35:53.757Z,71.47
2018-02-14T07:36:53.762Z,71.38
2018-02-14T07:37:53.750Z,71.56
2018-02-14T07:38:53.817Z,71.49
2018-02-14T07:39:53.790Z,71.65
2018-02-14T07:40:53.770Z,71.28
2018-02-14T07:41:53.777Z,71.31
2018-02-14T07:42:53.759Z,71.65
2018-02-14T07:43:53.794Z,71.61
2018-02-14T07:44:53.791Z,71.2
2018-02-14T07:45:53.785Z,71.2
2018-02-14T07:46:53.804Z,71.2
2018-02-14T07:47:53.793Z,71.14
2018-02-14T07:48:53.813Z,71.01
2018-02-14T07:49:53.817Z,71.09
2018-02-14T07:50:53.791Z,71.05
2018-02-14T07:51:53.802Z,71.19
2018-02-14T07:52:53.806Z,70.86
2018-02-14T07:53:53.818Z,70.8
2018-02-14T07:56:58.848Z,70.83
2018-02-14T07:57:53.832Z,70.66
2018-02-14T07:58:53.856Z,70.71
2018-02-14T07:59:53.863Z,70.68
2018-02-14T08:00:53.837Z,70.86
2018-02-14T08:01:53.825Z,70.84
2018-02-14T08:02:53.833Z,71.09
2018-02-14T08:03:53.860Z,70.97
2018-02-14T08:04:54.395Z,70.72
2018-02-14T08:05:53.862Z,70.64
2018-02-14T08:06:53.862Z,70.5
2018-02-14T08:07:53.903Z,70.67
2018-02-14T08:08:53.855Z,70.65
2018-02-14T08:09:54.190Z,70.57
2018-02-14T08:10:53.865Z,70.51
2018-02-14T08:11:53.869Z,70.1
2018-02-14T08:12:53.875Z,70.5
2018-02-14T08:13:53.862Z,70.18
2018-02-14T08:14:53.893Z,70.23
2018-02-14T08:15:53.881Z,70.29
2018-02-14T08:16:53.871Z,70.1
2018-02-14T08:17:53.871Z,70.32
2018-02-14T08:18:53.880Z,70.33
2018-02-14T08:19:53.887Z,70.44
2018-02-14T08:20:54.216Z,70.35
2018-02-14T08:21:53.891Z,70.07
2018-02-14T08:22:53.883Z,70.01
2018-02-14T08:23:53.890Z,69.96
2018-02-14T08:24:53.887Z,70.32
2018-02-14T08:25:53.916Z,70.05
2018-02-14T08:26:53.930Z,69.87
2018-02-14T08:27:53.895Z,69.4
2018-02-14T08:28:53.977Z,69.29
2018-02-14T08:29:53.903Z,69.67
2018-02-14T08:30:53.905Z,69.29
2018-02-14T08:31:53.953Z,68.87
2018-02-14T08:32:53.904Z,68.95
2018-02-14T08:33:53.902Z,69.14
2018-02-14T08:34:53.910Z,68.88
2018-02-14T08:35:53.909Z,68.79
2018-02-14T08:36:53.936Z,68.83
2018-02-14T08:37:53.960Z,68.85
2018-02-14T08:38:53.922Z,69.03
2018-02-14T08:39:53.917Z,68.78
2018-02-14T08:40:53.928Z,68.3
2018-02-14T08:41:53.935Z,68.58
2018-02-14T08:42:54.090Z,68.35
2018-02-14T08:43:53.925Z,68.21
2018-02-14T08:44:53.940Z,68.3
2018-02-14T08:45:53.991Z,68.37
2018-02-14T08:46:53.965Z,68.48
2018-02-14T08:47:54.150Z,68.17
2018-02-14T08:48:53.953Z,68.06
2018-02-14T08:49:53.947Z,67.61
2018-02-14T08:50:53.951Z,67.57
2018-02-14T08:51:53.943Z,68.1
2018-02-14T08:52:53.995Z,67.94
2018-02-14T08:53:53.988Z,68.08
2018-02-14T08:54:53.976Z,67.89
2018-02-14T08:55:53.976Z,68.05
2018-02-14T08:56:53.963Z,67.89
2018-02-14T08:57:54.000Z,67.88
2018-02-14T08:58:53.983Z,67.79
2018-02-14T08:59:53.967Z,67.79
2018-02-14T09:00:53.971Z,67.71
2018-02-14T09:01:53.977Z,67.58
2018-02-14T09:02:54.175Z,67.84
2018-02-14T09:03:53.989Z,67.84
2018-02-14T09:04:53.992Z,67.73
2018-02-14T09:05:54.005Z,67.79
2018-02-14T09:06:53.988Z,67.94
2018-02-14T09:07:53.978Z,67.76
2018-02-14T09:08:54.009Z,67.56
2018-02-14T09:09:54.005Z,67.7
2018-02-14T09:10:54.012Z,67.65
2018-02-14T09:11:54.018Z,67.24
2018-02-14T09:12:54.005Z,66.84
2018-02-14T09:13:54.056Z,67.19
2018-02-14T09:14:54.014Z,67.41
2018-02-14T09:15:54.017Z,67.06
2018-02-14T09:16:54.078Z,67.31
2018-02-14T09:17:54.040Z,67.24
2018-02-14T09:18:54.048Z,66.92
2018-02-14T09:19:54.072Z,66.79
2018-02-14T09:20:54.034Z,66.88
2018-02-14T09:21:54.055Z,66.03
2018-02-14T09:22:54.041Z,66.31
2018-02-14T09:23:54.058Z,66.27
2018-02-14T09:24:54.080Z,66.16
2018-02-14T09:25:54.503Z,66.01
2018-02-14T09:26:54.065Z,65.87
2018-02-14T09:27:54.072Z,66.07
2018-02-14T09:28:54.059Z,65.74
2018-02-14T09:29:54.091Z,65.83
2018-02-14T09:30:54.071Z,65.62
2018-02-14T09:31:54.098Z,66.03
2018-02-14T09:32:54.080Z,65.84
2018-02-14T09:33:54.082Z,65.77
2018-02-14T09:34:54.386Z,65.65
2018-02-14T09:35:54.095Z,65.2
2018-02-14T09:36:54.107Z,65
2018-02-14T09:37:54.102Z,65.2
2018-02-14T09:38:54.125Z,65.06
2018-02-14T09:39:54.107Z,65.18
2018-02-14T09:40:54.111Z,65.57
2018-02-14T09:41:54.118Z,65.28
2018-02-14T09:42:54.109Z,65.29
2018-02-14T09:43:54.110Z,64.77
2018-02-14T09:44:54.122Z,65.02
2018-02-14T09:45:54.114Z,64.74
2018-02-14T09:46:54.101Z,64.75
2018-02-14T09:47:54.104Z,64.69
2018-02-14T09:48:54.111Z,64.35
2018-02-14T09:49:54.116Z,64.29
2018-02-14T09:50:54.114Z,64.71
2018-02-14T09:51:54.153Z,64.21
2018-02-14T09:52:54.132Z,63.84
2018-02-14T09:53:54.139Z,63.92
2018-02-14T09:54:54.176Z,64.25
2018-02-14T09:55:54.162Z,64.09
2018-02-14T09:56:54.167Z,63.74
2018-02-14T09:57:54.152Z,63.96
2018-02-14T09:58:54.172Z,63.83
2018-02-14T09:59:54.199Z,63.82
2018-02-14T10:00:54.205Z,63.9
2018-02-14T10:01:54.182Z,63.84
2018-02-14T10:02:54.178Z,63.85
2018-02-14T10:03:54.216Z,64.22
2018-02-14T10:04:54.187Z,63.64
2018-02-14T10:05:54.185Z,63.6
2018-02-14T10:06:54.191Z,63.28
2018-02-14T10:07:54.194Z,63.89
2018-02-14T10:08:54.219Z,64.2
2018-02-14T10:09:54.228Z,63.35
2018-02-14T10:10:54.210Z,62.94
2018-02-14T10:11:54.319Z,62.88
2018-02-14T10:12:54.221Z,62.67
2018-02-14T10:13:54.257Z,62.77
2018-02-14T10:14:54.267Z,62.86
2018-02-14T10:15:54.223Z,62.38
2018-02-14T10:16:54.244Z,62.11
2018-02-14T10:17:54.258Z,62.19
2018-02-14T10:18:54.275Z,62.24
2018-02-14T10:19:54.241Z,62.24
2018-02-14T10:20:54.254Z,62.42
2018-02-14T10:21:54.251Z,62.03
2018-02-14T10:22:54.259Z,61.81
2018-02-14T10:23:54.297Z,62.04
2018-02-14T10:24:54.323Z,61.79
2018-02-14T10:25:54.271Z,61.55
2018-02-14T10:26:54.281Z,61.67
2018-02-14T10:27:54.279Z,61.53
2018-02-14T10:28:54.334Z,61.65
2018-02-14T10:29:54.300Z,61.08
2018-02-14T10:30:54.291Z,61.01
2018-02-14T10:31:54.297Z,60.74
2018-02-14T10:32:54.299Z,59.95
2018-02-14T10:33:54.313Z,59.98
2018-02-14T10:34:54.322Z,60.07
2018-02-14T10:35:54.328Z,60.42
2018-02-14T10:36:54.291Z,60.14
2018-02-14T10:37:54.293Z,60.28
2018-02-14T10:38:54.320Z,60.13
2018-02-14T10:39:54.333Z,60.66
2018-02-14T10:40:54.301Z,60.06
2018-02-14T10:41:54.348Z,60.09
2018-02-14T10:42:54.322Z,59.61
2018-02-14T10:43:54.359Z,59.86
2018-02-14T10:44:54.344Z,59.27
2018-02-14T10:45:54.361Z,59.18
2018-02-14T10:46:54.331Z,59.2
2018-02-14T10:47:54.357Z,59.54
2018-02-14T10:48:54.338Z,59.87
2018-02-14T10:49:54.353Z,59.2
2018-02-14T10:50:54.691Z,59.5
2018-02-14T10:51:54.411Z,59.22
2018-02-14T10:52:54.455Z,58.82
2018-02-14T10:53:54.355Z,58.98
2018-02-14T10:54:54.361Z,58.86
2018-02-14T10:55:54.385Z,58.55
2018-02-14T10:56:54.620Z,58.59
2018-02-14T10:57:54.377Z,58.98
2018-02-14T10:58:54.382Z,58.95
2018-02-14T10:59:54.444Z,58.11
2018-02-14T11:00:57.035Z,58.46
2018-02-14T11:01:55.653Z,57.78
2018-02-14T11:02:54.523Z,58.39
2018-02-14T11:03:54.466Z,58.14
2018-02-14T11:04:54.391Z,58.26
2018-02-14T11:05:54.394Z,58.38
2018-02-14T11:06:54.400Z,58.32
2018-02-14T11:07:54.391Z,58.07
2018-02-14T11:08:54.387Z,57.9
2018-02-14T11:09:54.421Z,57.38
2018-02-14T11:10:54.414Z,57.24
2018-02-14T11:11:54.459Z,57.36
2018-02-14T11:12:54.414Z,57.52
2018-02-14T11:13:54.431Z,57.55
2018-02-14T11:14:54.420Z,57.27
2018-02-14T11:15:54.411Z,57.49
2018-02-14T11:16:54.432Z,57.12
2018-02-14T11:17:54.401Z,57.55
2018-02-14T11:18:54.413Z,57.3
2018-02-14T11:19:54.414Z,56.93
2018-02-14T11:20:54.417Z,56.78
2018-02-14T11:21:54.432Z,56.39
2018-02-14T11:22:54.416Z,56.26
2018-02-14T11:23:54.446Z,56.27
2018-02-14T11:24:54.437Z,56.65
2018-02-14T11:25:54.435Z,56.29
2018-02-14T11:26:54.443Z,55.89
2018-02-14T11:27:54.431Z,55.69
2018-02-14T11:28:54.445Z,56.07
2018-02-14T11:45:29.627Z,53.64
2018-02-14T11:46:29.460Z,53.48
2018-02-14T11:47:29.463Z,54.45
2018-02-14T11:48:29.479Z,54.49
2018-02-14T11:49:29.473Z,54.71
2018-02-14T11:50:29.463Z,54.03
2018-02-14T11:51:29.450Z,53.26
2018-02-14T11:52:29.459Z,53.3
2018-02-14T11:53:29.491Z,52.64
2018-02-14T11:54:29.496Z,53.48
2018-02-14T11:55:29.473Z,53.49
2018-02-14T11:56:33.093Z,51.84
2018-02-14T11:57:33.132Z,52.33
2018-02-14T11:58:34.949Z,51.97
2018-02-14T11:59:35.749Z,52.34
2018-02-14T12:00:34.127Z,53.01
2018-02-14T12:01:35.561Z,50.67
2018-02-14T12:02:33.923Z,49.9
2018-02-14T12:03:33.151Z,50.75
2018-02-14T12:04:33.139Z,50.86
2018-02-14T12:05:33.159Z,50.94
2018-02-14T12:06:33.157Z,49.99
2018-02-14T12:07:33.168Z,49.95
2018-02-14T12:08:33.162Z,50.66
2018-02-14T12:09:33.162Z,50.69
2018-02-14T12:10:33.173Z,50.06
2018-02-14T12:11:33.181Z,51.14
2018-02-14T12:12:33.173Z,50.65
2018-02-14T12:13:33.171Z,50.36
2018-02-14T12:14:33.199Z,50.24
2018-02-14T12:15:33.198Z,50.46
2018-02-14T12:16:33.199Z,50.19
2018-02-14T12:17:33.195Z,50.04
2018-02-14T12:18:33.183Z,50.05
2018-02-14T12:19:33.194Z,50.38
2018-02-14T12:20:33.206Z,49.24
2018-02-14T12:21:33.195Z,49.09
2018-02-14T12:31:11.978Z,49.72
2018-02-14T12:32:11.941Z,48.43
2018-02-14T12:33:12.104Z,48.93
2018-02-14T12:34:11.923Z,48.64
2018-02-14T12:35:11.953Z,48.74
2018-02-14T12:38:24.129Z,48.13
2018-02-14T12:39:12.116Z,48.54
2018-02-14T12:40:12.139Z,48.94
2018-02-14T12:41:12.180Z,48.25
2018-02-14T12:42:12.262Z,48.94
2018-02-14T12:43:12.157Z,48.65
2018-02-14T12:44:12.069Z,48.35
2018-02-14T12:45:12.177Z,48.68
2018-02-14T12:46:12.152Z,47.8
2018-02-14T12:47:12.152Z,48.17
2018-02-14T12:48:12.172Z,48.97
2018-02-14T12:49:12.134Z,49.23
2018-02-14T12:50:12.124Z,49.12
2018-02-14T12:51:12.144Z,48.22
2018-02-14T12:52:12.177Z,48.22
2018-02-14T12:53:12.417Z,47.53
2018-02-14T12:54:12.174Z,47.64
2018-02-14T12:55:12.157Z,48.39
2018-02-14T12:56:12.154Z,48.32
2018-02-14T12:57:12.244Z,47.94
2018-02-14T12:58:12.152Z,48.45
2018-02-14T12:59:12.156Z,48.9
2018-02-14T13:00:12.266Z,49.42
2018-02-14T13:01:12.259Z,48.93
2018-02-14T13:02:12.343Z,48.57
2018-02-14T13:03:12.177Z,49.2
2018-02-14T13:04:12.181Z,48.9
2018-02-14T13:05:12.183Z,48.7
2018-02-14T13:06:12.177Z,48.25
2018-02-14T13:07:12.380Z,47.59
2018-02-14T13:08:12.203Z,48.55
2018-02-14T13:09:12.183Z,48.98
2018-02-14T13:10:12.184Z,48.18
2018-02-14T13:11:12.251Z,48.06
2018-02-14T13:12:12.192Z,47.75
2018-02-14T13:13:12.199Z,47.71
2018-02-14T13:14:12.192Z,47.43
2018-02-14T13:15:12.361Z,47.68
2018-02-14T13:16:12.194Z,47.65
2018-02-14T13:17:12.200Z,47.43
2018-02-14T13:18:12.207Z,48.62
2018-02-14T13:19:12.217Z,47.5
2018-02-14T13:20:12.270Z,46.92
2018-02-14T13:21:12.232Z,46.96
2018-02-14T13:22:12.207Z,46.49
2018-02-14T13:23:12.217Z,47.07
2018-02-14T13:24:12.244Z,47.72
2018-02-14T13:25:12.246Z,47.47
2018-02-14T13:26:12.283Z,46.77